createdAt,value
2022-11-07T00:00:21.137Z,9.711984
2022-11-07T00:01:21.252Z,9.712153
2022-11-07T00:02:21.186Z,9.711938
2022-11-07T00:03:21.141Z,9.711748
2022-11-07T00:04:21.095Z,9.711775
2022-11-07T00:05:21.084Z,9.712166
2022-11-07T00:06:21.070Z,9.712135
2022-11-07T00:07:21.068Z,9.711985
2022-11-07T00:08:21.055Z,9.711958
2022-11-07T00:09:21.047Z,9.712143
2022-11-07T00:10:21.040Z,9.711897
2022-11-07T00:11:21.036Z,9.711965
2022-11-07T00:12:21.019Z,9.711981
2022-11-07T00:13:21.654Z,9.712256
2022-11-07T00:14:21.008Z,9.712456
2022-11-07T00:15:21.007Z,9.712683
2022-11-07T00:16:21.002Z,9.712689
2022-11-07T00:17:21.016Z,9.712912
2022-11-07T00:18:20.977Z,9.712936
2022-11-07T00:19:20.968Z,9.712652
2022-11-07T00:20:20.959Z,9.711232
2022-11-07T00:21:20.956Z,9.710535
2022-11-07T00:22:20.947Z,9.711035
2022-11-07T00:23:20.928Z,9.711505
2022-11-07T00:24:20.923Z,9.711082
2022-11-07T00:25:20.918Z,9.710939
2022-11-07T00:26:20.907Z,9.711164
2022-11-07T00:27:20.958Z,9.711568
2022-11-07T00:34:22.117Z,9.711463
2022-11-07T00:35:22.100Z,9.711501
2022-11-07T00:36:22.091Z,9.711140
2022-11-07T00:37:22.105Z,9.711256
2022-11-07T00:38:22.078Z,9.711097
2022-11-07T00:39:22.986Z,9.711558
2022-11-07T00:40:22.058Z,9.711588
2022-11-07T00:41:22.058Z,9.711659
2022-11-07T00:42:22.046Z,9.711637
2022-11-07T00:43:22.044Z,9.711622
2022-11-07T00:44:22.033Z,9.711597
2022-11-07T00:45:22.027Z,9.711581
2022-11-07T00:46:22.030Z,9.711592
2022-11-07T00:47:22.028Z,9.711711
2022-11-07T00:48:22.016Z,9.711630
2022-11-07T00:49:21.987Z,9.711599
2022-11-07T00:50:22.989Z,9.711608
2022-11-07T00:51:21.980Z,9.711573
2022-11-07T00:52:21.971Z,9.711632
2022-11-07T00:53:21.980Z,9.711632
2022-11-07T00:54:21.958Z,9.711616
2022-11-07T00:55:21.967Z,9.711585
2022-11-07T00:56:21.944Z,9.711599
2022-11-07T00:57:21.928Z,9.711571
2022-11-07T00:58:21.921Z,9.711595
2022-11-07T00:59:21.913Z,9.711610
2022-11-07T01:00:21.899Z,9.711580
2022-11-07T01:01:21.987Z,9.711614
2022-11-07T01:02:21.985Z,9.711617
2022-11-07T01:03:21.880Z,9.711645
2022-11-07T01:04:21.870Z,9.711564
2022-11-07T01:05:21.861Z,9.711602
2022-11-07T01:06:21.858Z,9.711587
2022-11-07T01:07:21.852Z,9.711608
2022-11-07T01:08:21.833Z,9.711545
2022-11-07T01:09:21.829Z,9.711582
2022-11-07T01:10:21.828Z,9.711559
2022-11-07T01:11:21.828Z,9.711647
2022-11-07T01:12:21.814Z,9.711655
2022-11-07T01:13:21.802Z,9.711627
2022-11-07T01:14:21.804Z,9.711582
2022-11-07T01:15:21.790Z,9.711668
2022-11-07T01:16:21.781Z,9.711546
2022-11-07T01:17:21.777Z,9.711667
2022-11-07T01:18:21.751Z,9.711647
2022-11-07T01:19:22.754Z,9.711597
2022-11-07T01:20:21.739Z,9.711584
2022-11-07T01:21:21.731Z,9.711635
2022-11-07T01:22:22.503Z,9.711623
2022-11-07T01:23:21.712Z,9.711581
2022-11-07T01:24:21.715Z,9.711543
2022-11-07T01:25:21.706Z,9.711691
2022-11-07T01:26:21.831Z,9.711568
2022-11-07T01:27:21.687Z,9.711667
2022-11-07T01:28:21.674Z,9.711733
2022-11-07T01:29:21.668Z,9.711520
2022-11-07T01:30:21.672Z,9.711534
2022-11-07T01:31:21.656Z,9.711357
2022-11-07T01:32:21.660Z,9.711404
2022-11-07T01:33:21.637Z,9.711500
2022-11-07T01:34:21.635Z,9.711684
2022-11-07T01:35:21.625Z,9.711595
2022-11-07T01:36:21.643Z,9.711396
2022-11-07T01:37:21.607Z,9.711459
2022-11-07T01:38:21.606Z,9.711487
2022-11-07T01:39:21.601Z,9.711463
2022-11-07T01:40:21.585Z,9.711253
2022-11-07T01:41:22.529Z,9.711287
2022-11-07T01:42:21.571Z,9.711637
2022-11-07T01:43:21.561Z,9.711484
2022-11-07T01:44:21.555Z,9.711576
2022-11-07T01:45:21.541Z,9.711449
2022-11-07T01:46:21.541Z,9.711555
2022-11-07T01:47:21.534Z,9.711345
2022-11-07T01:48:21.517Z,9.711411
2022-11-07T01:49:21.518Z,9.711681
2022-11-07T01:50:24.676Z,9.711435
2022-11-07T01:51:22.505Z,9.711531
2022-11-07T01:52:21.494Z,9.711505
2022-11-07T01:53:21.481Z,9.711118
2022-11-07T01:54:21.473Z,9.711608
2022-11-07T01:55:21.470Z,9.711437
2022-11-07T01:56:21.464Z,9.711459
2022-11-07T01:57:21.448Z,9.711329
2022-11-07T01:58:21.462Z,9.711668
2022-11-07T01:59:21.441Z,9.711472
2022-11-07T02:00:21.422Z,9.711542
2022-11-07T02:01:21.498Z,9.711549
2022-11-07T02:02:21.512Z,9.711536
2022-11-07T02:03:21.435Z,9.711591
2022-11-07T02:04:21.388Z,9.711582
2022-11-07T02:05:21.392Z,9.711618
2022-11-07T02:06:21.375Z,9.711607
2022-11-07T02:07:21.930Z,9.711588
2022-11-07T02:08:21.372Z,9.711577
2022-11-07T02:09:21.351Z,9.711577
2022-11-07T02:10:21.343Z,9.711623
2022-11-07T02:11:21.336Z,9.711713
2022-11-07T02:12:21.333Z,9.711725
2022-11-07T02:13:21.326Z,9.711740
2022-11-07T02:14:21.399Z,9.711697
2022-11-07T02:15:21.303Z,9.711710
2022-11-07T02:16:21.307Z,9.711635
2022-11-07T02:17:21.291Z,9.711614
2022-11-07T02:18:21.314Z,9.711574
2022-11-07T02:19:21.272Z,9.711679
2022-11-07T02:20:21.271Z,9.711645
2022-11-07T02:21:21.255Z,9.711762
2022-11-07T02:22:21.251Z,9.711661
2022-11-07T02:23:21.243Z,9.711652
2022-11-07T02:24:21.231Z,9.711673
2022-11-07T02:25:21.224Z,9.711655
2022-11-07T02:26:21.218Z,9.711642
2022-11-07T02:27:21.206Z,9.711668
2022-11-07T02:28:21.207Z,9.711681
2022-11-07T02:29:21.188Z,9.711666
2022-11-07T02:30:21.183Z,9.711656
2022-11-07T02:31:21.174Z,9.711649
2022-11-07T02:32:21.184Z,9.711619
2022-11-07T02:33:21.157Z,9.711655
2022-11-07T02:34:21.156Z,9.711634
2022-11-07T02:35:21.143Z,9.711611
2022-11-07T02:36:21.146Z,9.711612
2022-11-07T02:37:21.147Z,9.711653
2022-11-07T02:38:21.123Z,9.711658
2022-11-07T02:39:21.113Z,9.711747
2022-11-07T02:40:21.128Z,9.711720
2022-11-07T02:41:21.104Z,9.711707
2022-11-07T02:42:21.091Z,9.711713
2022-11-07T02:43:21.100Z,9.711546
2022-11-07T02:44:21.078Z,9.711657
2022-11-07T02:45:21.076Z,9.711814
2022-11-07T02:46:21.944Z,9.711782
2022-11-07T02:47:21.046Z,9.711655
2022-11-07T02:48:21.056Z,9.711607
2022-11-07T02:49:21.033Z,9.711699
2022-11-07T02:50:21.017Z,9.712071
2022-11-07T02:51:22.033Z,9.712081
2022-11-07T02:52:21.025Z,9.711801
2022-11-07T02:53:21.008Z,9.711738
2022-11-07T02:54:21.010Z,9.711835
2022-11-07T02:55:20.987Z,9.711809
2022-11-07T02:56:20.997Z,9.712198
2022-11-07T02:57:20.980Z,9.711954
2022-11-07T02:58:20.973Z,9.711922
2022-11-07T02:59:25.846Z,9.711977
2022-11-07T03:00:22.971Z,9.711669
2022-11-07T03:01:21.281Z,9.711898
2022-11-07T03:02:21.229Z,9.711884
2022-11-07T03:03:20.930Z,9.711921
2022-11-07T03:04:20.914Z,9.711972
2022-11-07T03:05:20.924Z,9.712127
2022-11-07T03:06:20.901Z,9.712108
2022-11-07T03:07:20.894Z,9.711954
2022-11-07T03:08:20.898Z,9.712048
2022-11-07T03:09:20.924Z,9.711726
2022-11-07T03:10:20.865Z,9.711597
2022-11-07T03:11:21.530Z,9.711619
2022-11-07T03:12:20.850Z,9.711660
2022-11-07T03:13:20.848Z,9.711678
2022-11-07T03:14:20.878Z,9.711725
2022-11-07T03:15:20.831Z,9.711597
2022-11-07T03:16:20.825Z,9.711622
2022-11-07T03:17:20.821Z,9.711683
2022-11-07T03:18:21.819Z,9.711747
2022-11-07T03:19:20.800Z,9.711710
2022-11-07T03:20:20.811Z,9.711654
2022-11-07T03:21:20.781Z,9.711685
2022-11-07T03:22:20.768Z,9.711724
2022-11-07T03:23:20.765Z,9.711773
2022-11-07T03:24:20.762Z,9.711684
2022-11-07T03:25:20.747Z,9.711476
2022-11-07T03:26:20.734Z,9.711679
2022-11-07T03:27:20.737Z,9.711727
2022-11-07T03:28:20.721Z,9.711672
2022-11-07T03:29:20.703Z,9.711597
2022-11-07T03:30:22.451Z,9.711663
2022-11-07T03:31:20.712Z,9.711661
2022-11-07T03:32:20.697Z,9.711555
2022-11-07T03:33:20.683Z,9.711615
2022-11-07T03:34:20.671Z,9.711583
2022-11-07T03:35:20.664Z,9.711598
2022-11-07T03:36:20.658Z,9.711612
2022-11-07T03:37:20.647Z,9.711529
2022-11-07T03:38:20.640Z,9.711551
2022-11-07T03:39:25.493Z,9.711599
2022-11-07T03:40:22.620Z,9.711575
2022-11-07T03:41:20.627Z,9.711595
2022-11-07T03:42:20.611Z,9.711673
2022-11-07T03:43:20.606Z,9.711492
2022-11-07T03:44:20.595Z,9.711579
2022-11-07T03:45:20.591Z,9.711718
2022-11-07T03:46:20.589Z,9.711783
2022-11-07T03:47:20.575Z,9.711507
2022-11-07T03:48:20.558Z,9.711639
2022-11-07T03:49:20.559Z,9.711840
2022-11-07T03:50:20.551Z,9.711656
2022-11-07T03:51:20.540Z,9.711685
2022-11-07T03:52:20.530Z,9.711832
2022-11-07T03:53:25.118Z,9.711699
2022-11-07T03:54:22.515Z,9.711807
2022-11-07T03:55:20.522Z,9.711785
2022-11-07T03:56:20.498Z,9.711972
2022-11-07T03:57:20.494Z,9.711823
2022-11-07T03:58:20.520Z,9.711726
2022-11-07T03:59:20.486Z,9.711830
2022-11-07T04:00:21.035Z,9.711675
2022-11-07T04:01:20.516Z,9.711632
2022-11-07T04:02:20.613Z,9.711629
2022-11-07T04:03:21.033Z,9.711600
2022-11-07T04:04:20.480Z,9.711558
2022-11-07T04:05:20.433Z,9.711555
2022-11-07T04:06:20.430Z,9.711639
2022-11-07T04:07:20.432Z,9.711573
2022-11-07T04:08:20.402Z,9.711571
2022-11-07T04:09:20.396Z,9.711593
2022-11-07T04:10:20.396Z,9.711555
2022-11-07T04:11:20.386Z,9.711485
2022-11-07T04:12:20.372Z,9.711550
2022-11-07T04:13:20.364Z,9.711585
2022-11-07T04:14:20.369Z,9.711488
2022-11-07T04:15:20.356Z,9.711523
2022-11-07T04:16:20.346Z,9.711643
2022-11-07T04:17:20.347Z,9.711624
2022-11-07T04:18:20.348Z,9.711718
2022-11-07T04:19:20.324Z,9.711680
2022-11-07T04:20:20.322Z,9.711679
2022-11-07T04:21:20.368Z,9.711770
2022-11-07T04:22:20.302Z,9.711746
2022-11-07T04:23:20.288Z,9.711703
2022-11-07T04:24:20.286Z,9.711626
2022-11-07T04:25:20.267Z,9.711702
2022-11-07T04:26:20.266Z,9.711825
2022-11-07T04:27:20.266Z,9.711776
2022-11-07T04:28:20.296Z,9.711702
2022-11-07T04:29:52.995Z,9.711640
2022-11-07T04:30:20.329Z,9.711802
2022-11-07T04:31:20.227Z,9.711755
2022-11-07T04:32:20.214Z,9.711717
2022-11-07T04:33:54.140Z,9.711722
2022-11-07T04:34:20.196Z,9.711643
2022-11-07T04:35:20.223Z,9.711679
2022-11-07T04:36:20.203Z,9.711905
2022-11-07T04:37:20.183Z,9.711945
2022-11-07T04:38:20.260Z,9.711870
2022-11-07T04:39:20.166Z,9.711786
2022-11-07T04:40:20.345Z,9.711835
2022-11-07T04:41:20.182Z,9.711786
2022-11-07T04:42:20.134Z,9.711842
2022-11-07T04:43:20.132Z,9.711911
2022-11-07T04:44:20.144Z,9.711825
2022-11-07T04:45:20.115Z,9.711788
2022-11-07T04:46:20.116Z,9.711684
2022-11-07T04:47:20.102Z,9.711720
2022-11-07T04:48:20.095Z,9.711846
2022-11-07T04:49:20.096Z,9.711857
2022-11-07T04:50:20.083Z,9.711770
2022-11-07T04:51:20.065Z,9.711649
2022-11-07T04:52:20.056Z,9.711580
2022-11-07T04:53:20.041Z,9.711567
2022-11-07T04:54:20.036Z,9.711567
2022-11-07T04:55:20.030Z,9.711526
2022-11-07T04:56:20.028Z,9.711630
2022-11-07T04:57:20.013Z,9.711769
2022-11-07T04:58:20.003Z,9.711796
2022-11-07T04:59:20.010Z,9.711836
2022-11-07T05:00:20.027Z,9.711914
2022-11-07T05:01:20.003Z,9.711673
2022-11-07T05:02:20.024Z,9.711815
2022-11-07T05:03:20.250Z,9.712028
2022-11-07T05:04:19.954Z,9.712670
2022-11-07T05:05:19.950Z,9.712361
2022-11-07T05:06:19.926Z,9.712015
2022-11-07T05:07:20.938Z,9.711859
2022-11-07T05:08:19.939Z,9.711907
2022-11-07T05:09:19.921Z,9.711872
2022-11-07T05:10:19.913Z,9.712069
2022-11-07T05:11:19.911Z,9.711930
2022-11-07T05:12:19.896Z,9.711895
2022-11-07T05:13:19.895Z,9.711913
2022-11-07T05:14:19.880Z,9.711874
2022-11-07T05:15:20.521Z,9.712057
2022-11-07T05:16:20.529Z,9.711761
2022-11-07T05:17:24.327Z,9.712081
2022-11-07T05:18:20.856Z,9.711987
2022-11-07T05:19:19.839Z,9.711623
2022-11-07T05:20:21.604Z,9.711966
2022-11-07T05:21:19.821Z,9.711877
2022-11-07T05:22:19.828Z,9.712027
2022-11-07T05:23:20.412Z,9.711962
2022-11-07T05:24:19.811Z,9.711998
2022-11-07T05:25:19.784Z,9.712129
2022-11-07T05:26:19.779Z,9.712209
2022-11-07T05:27:19.775Z,9.712168
2022-11-07T05:28:25.739Z,9.712319
2022-11-07T05:29:21.775Z,9.712018
2022-11-07T05:30:19.798Z,9.712273
2022-11-07T05:31:19.731Z,9.712235
2022-11-07T05:32:19.765Z,9.712187
2022-11-07T05:33:19.718Z,9.712306
2022-11-07T05:34:20.119Z,9.711786
2022-11-07T05:35:19.701Z,9.712138
2022-11-07T05:36:19.705Z,9.712088
2022-11-07T05:37:19.709Z,9.712089
2022-11-07T05:38:19.692Z,9.712001
2022-11-07T05:39:19.671Z,9.711801
2022-11-07T05:40:19.660Z,9.712127
2022-11-07T05:41:19.664Z,9.712037
2022-11-07T05:42:19.663Z,9.711935
2022-11-07T05:43:20.117Z,9.712094
2022-11-07T05:44:19.634Z,9.711798
2022-11-07T05:45:19.640Z,9.711761
2022-11-07T05:46:20.616Z,9.711717
2022-11-07T05:47:19.623Z,9.711640
2022-11-07T05:48:19.620Z,9.711712
2022-11-07T05:49:19.603Z,9.711687
2022-11-07T05:50:19.592Z,9.711665
2022-11-07T05:51:19.860Z,9.711661
2022-11-07T05:52:21.638Z,9.711497
2022-11-07T05:53:21.148Z,9.711459
2022-11-07T05:54:19.553Z,9.711575
2022-11-07T05:55:19.585Z,9.711584
2022-11-07T05:56:19.542Z,9.711544
2022-11-07T05:57:19.541Z,9.711550
2022-11-07T05:58:19.533Z,9.711585
2022-11-07T05:59:20.056Z,9.711670
2022-11-07T06:00:19.647Z,9.711769
2022-11-07T06:01:19.509Z,9.711736
2022-11-07T06:02:19.712Z,9.711746
2022-11-07T06:03:19.990Z,9.711648
2022-11-07T06:04:19.483Z,9.711784
2022-11-07T06:05:24.015Z,9.712038
2022-11-07T06:06:20.461Z,9.711796
2022-11-07T06:07:19.459Z,9.711734
2022-11-07T06:08:19.439Z,9.711631
2022-11-07T06:09:19.450Z,9.711641
2022-11-07T06:10:19.439Z,9.711656
2022-11-07T06:11:19.426Z,9.711664
2022-11-07T06:12:19.442Z,9.711616
2022-11-07T06:13:19.625Z,9.711540
2022-11-07T06:14:19.408Z,9.711583
2022-11-07T06:15:19.395Z,9.711622
2022-11-07T06:16:20.112Z,9.711628
2022-11-07T06:17:21.107Z,9.711595
2022-11-07T06:18:19.355Z,9.711731
2022-11-07T06:19:20.109Z,9.711658
2022-11-07T06:20:19.343Z,9.711549
2022-11-07T06:21:22.062Z,9.711562
2022-11-07T06:22:22.110Z,9.711550
2022-11-07T06:23:20.434Z,9.711703
2022-11-07T06:24:19.317Z,9.711674
2022-11-07T06:25:19.327Z,9.711617
2022-11-07T06:26:19.313Z,9.711494
2022-11-07T06:27:20.048Z,9.711594
2022-11-07T06:28:19.304Z,9.711472
2022-11-07T06:29:20.119Z,9.711639
2022-11-07T06:30:19.330Z,9.711563
2022-11-07T06:31:19.267Z,9.711594
2022-11-07T06:35:27.188Z,9.711706
2022-11-07T06:36:27.193Z,9.711574
2022-11-07T06:37:27.168Z,9.711576
2022-11-07T06:38:27.168Z,9.711485
2022-11-07T06:39:27.148Z,9.711381
2022-11-07T06:40:27.158Z,9.711565
2022-11-07T06:41:27.145Z,9.711398
2022-11-07T06:42:27.959Z,9.711330
2022-11-07T06:43:27.124Z,9.711547
2022-11-07T06:51:36.460Z,9.711635
2022-11-07T06:52:36.441Z,9.711701
2022-11-07T06:53:36.445Z,9.711671
2022-11-07T06:54:36.420Z,9.711469
2022-11-07T06:55:36.441Z,9.711669
2022-11-07T06:56:36.408Z,9.711377
2022-11-07T06:57:37.313Z,9.711676
2022-11-07T06:58:36.422Z,9.711407
2022-11-07T06:59:37.265Z,9.711581
2022-11-07T07:00:36.585Z,9.711583
2022-11-07T07:01:36.531Z,9.711807
2022-11-07T07:02:57.549Z,9.711681
2022-11-07T07:03:38.482Z,9.711720
2022-11-07T07:04:37.357Z,9.711813
2022-11-07T07:05:39.789Z,9.711671
2022-11-07T07:06:36.322Z,9.711539
2022-11-07T07:07:36.337Z,9.711609
2022-11-07T07:08:36.311Z,9.711682
2022-11-07T07:09:36.316Z,9.711654
2022-11-07T07:10:36.295Z,9.711917
2022-11-07T07:11:40.261Z,9.712168
2022-11-07T07:12:36.267Z,9.711771
2022-11-07T07:13:36.261Z,9.711785
2022-11-07T07:14:36.254Z,9.711794
2022-11-07T07:15:49.814Z,9.712114
2022-11-07T07:16:38.228Z,9.711993
2022-11-07T07:17:36.339Z,9.711953
2022-11-07T07:18:36.229Z,9.711775
2022-11-07T07:19:36.209Z,9.711826
2022-11-07T07:20:36.237Z,9.711799
2022-11-07T07:21:36.865Z,9.711892
2022-11-07T07:22:36.199Z,9.711614
2022-11-07T07:23:36.185Z,9.711593
2022-11-07T07:24:36.198Z,9.711828
2022-11-07T07:25:36.173Z,9.711918
2022-11-07T07:26:36.158Z,9.711857
2022-11-07T07:27:36.153Z,9.711647
2022-11-07T07:28:36.148Z,9.711951
2022-11-07T07:29:36.136Z,9.711828
2022-11-07T07:30:36.125Z,9.711940
2022-11-07T07:31:36.115Z,9.711714
2022-11-07T07:32:36.106Z,9.711710
2022-11-07T07:33:36.199Z,9.711778
2022-11-07T07:34:36.086Z,9.711912
2022-11-07T07:35:36.099Z,9.711758
2022-11-07T07:36:36.087Z,9.711744
2022-11-07T07:37:36.070Z,9.711756
2022-11-07T07:38:36.079Z,9.711532
2022-11-07T07:39:36.056Z,9.711786
2022-11-07T07:40:36.052Z,9.711684
2022-11-07T07:41:40.065Z,9.711854
2022-11-07T07:42:37.059Z,9.711994
2022-11-07T07:43:36.016Z,9.712230
2022-11-07T07:44:36.018Z,9.712450
2022-11-07T07:45:37.007Z,9.712437
2022-11-07T07:46:36.796Z,9.712276
2022-11-07T07:47:35.993Z,9.712139
2022-11-07T07:48:35.978Z,9.712160
2022-11-07T07:49:36.067Z,9.712157
2022-11-07T07:50:35.965Z,9.712049
2022-11-07T07:51:35.952Z,9.711880
2022-11-07T08:16:43.713Z,9.713564
2022-11-07T08:17:43.702Z,9.710870
2022-11-07T08:18:43.715Z,9.710569
2022-11-07T08:19:44.602Z,9.711198
2022-11-07T08:20:44.075Z,9.711450
2022-11-07T08:21:43.770Z,9.711738
2022-11-07T08:22:43.681Z,9.711681
2022-11-07T08:23:43.661Z,9.711399
2022-11-07T08:24:43.642Z,9.711532
2022-11-07T08:25:43.649Z,9.711651
2022-11-07T08:26:43.635Z,9.711421
2022-11-07T08:27:44.167Z,9.711122
2022-11-07T08:28:43.612Z,9.710974
2022-11-07T08:29:43.603Z,9.710905
2022-11-07T08:30:43.596Z,9.710999
2022-11-07T08:31:43.601Z,9.710893
2022-11-07T08:32:43.597Z,9.710876
2022-11-07T08:33:45.291Z,9.710993
2022-11-07T08:34:45.189Z,9.711195
2022-11-07T08:35:43.560Z,9.711195
2022-11-07T08:36:43.553Z,9.711195
2022-11-07T08:37:44.264Z,9.711012
2022-11-07T08:38:43.529Z,9.711012
2022-11-07T08:39:43.528Z,9.711012
2022-11-07T08:40:43.519Z,9.711012
2022-11-07T08:41:43.523Z,9.710968
2022-11-07T08:42:43.518Z,9.710988
2022-11-07T08:43:43.491Z,9.711202
2022-11-07T08:44:43.481Z,9.711314
2022-11-07T08:45:43.479Z,9.711489
2022-11-07T08:46:43.478Z,9.711441
2022-11-07T08:47:44.172Z,9.711339
2022-11-07T08:48:43.458Z,9.711671
2022-11-07T08:49:43.466Z,9.711716
2022-11-07T08:50:43.442Z,9.711640
2022-11-07T08:51:43.424Z,9.711640
2022-11-07T08:52:43.433Z,9.711706
2022-11-07T08:53:43.408Z,9.711618
2022-11-07T08:54:43.427Z,9.711606
2022-11-07T08:55:43.397Z,9.711779
2022-11-07T08:56:43.380Z,9.711650
2022-11-07T08:57:43.384Z,9.711818
2022-11-07T08:58:43.365Z,9.711774
2022-11-07T08:59:43.364Z,9.711688
2022-11-07T09:00:43.397Z,9.711787
2022-11-07T09:02:14.346Z,9.711745
2022-11-07T09:03:23.859Z,9.711752
2022-11-07T09:03:50.259Z,9.711577
2022-11-07T09:04:45.379Z,9.711730
2022-11-07T09:05:44.185Z,9.711716
2022-11-07T09:06:43.301Z,9.711729
2022-11-07T09:07:43.294Z,9.711707
2022-11-07T09:08:43.300Z,9.711567
2022-11-07T09:09:43.280Z,9.711692
2022-11-07T09:10:43.691Z,9.711733
2022-11-07T09:11:43.259Z,9.711931
2022-11-07T09:12:43.256Z,9.712404
2022-11-07T09:13:43.258Z,9.712488
2022-11-07T09:14:43.238Z,9.712420
2022-11-07T09:15:49.396Z,9.712478
2022-11-07T09:16:45.217Z,9.713208
2022-11-07T09:17:43.211Z,9.712916
2022-11-07T09:18:43.212Z,9.713023
2022-11-07T09:19:43.210Z,9.712704
2022-11-07T09:20:43.194Z,9.712292
2022-11-07T09:21:43.185Z,9.712060
2022-11-07T09:22:43.198Z,9.711739
2022-11-07T09:23:43.174Z,9.711658
2022-11-07T09:24:43.178Z,9.711427
2022-11-07T09:25:43.154Z,9.711799
2022-11-07T09:26:43.155Z,9.711803
2022-11-07T09:27:43.136Z,9.711830
2022-11-07T09:28:47.048Z,9.711684
2022-11-07T09:29:45.123Z,9.711441
2022-11-07T09:30:43.130Z,9.711562
2022-11-07T09:31:43.679Z,9.711802
2022-11-07T09:32:45.586Z,9.711858
2022-11-07T09:33:44.089Z,9.711855
2022-11-07T09:34:43.086Z,9.711770
2022-11-07T09:35:43.081Z,9.711759
2022-11-07T09:36:43.064Z,9.711751
2022-11-07T09:37:43.068Z,9.711792
2022-11-07T09:38:43.053Z,9.711718
2022-11-07T09:39:43.056Z,9.711854
2022-11-07T09:40:43.290Z,9.711944
2022-11-07T09:41:43.021Z,9.711812
2022-11-07T09:42:43.022Z,9.711892
2022-11-07T09:43:43.018Z,9.711740
2022-11-07T09:44:43.005Z,9.711627
2022-11-07T09:45:43.006Z,9.711777
2022-11-07T09:46:42.998Z,9.711983
2022-11-07T09:47:42.987Z,9.712023
2022-11-07T09:48:42.979Z,9.711883
2022-11-07T09:49:43.688Z,9.712094
2022-11-07T09:50:43.687Z,9.711886
2022-11-07T09:51:42.953Z,9.711873
2022-11-07T09:52:43.771Z,9.711836
2022-11-07T09:53:44.760Z,9.712055
2022-11-07T09:54:42.931Z,9.712087
2022-11-07T09:55:42.917Z,9.711835
2022-11-07T09:56:42.910Z,9.711853
2022-11-07T09:57:42.899Z,9.711924
2022-11-07T09:58:42.927Z,9.711774
2022-11-07T09:59:42.882Z,9.711841
2022-11-07T10:00:42.942Z,9.711643
2022-11-07T10:01:43.012Z,9.711809
2022-11-07T10:02:42.871Z,9.711971
2022-11-07T10:03:52.951Z,9.712047
2022-11-07T10:04:44.844Z,9.712044
2022-11-07T10:05:42.832Z,9.711890
2022-11-07T10:06:42.834Z,9.711843
2022-11-07T10:07:42.819Z,9.711701
2022-11-07T10:08:44.779Z,9.711935
2022-11-07T10:09:42.836Z,9.711979
2022-11-07T10:10:42.794Z,9.711840
2022-11-07T10:11:42.803Z,9.711541
2022-11-07T10:12:44.842Z,9.711384
2022-11-07T10:13:43.777Z,9.711350
2022-11-07T10:14:42.765Z,9.711215
2022-11-07T10:15:42.764Z,9.711580
2022-11-07T10:16:42.779Z,9.711597
2022-11-07T10:17:42.746Z,9.711661
2022-11-07T10:18:42.745Z,9.711663
2022-11-07T10:19:42.738Z,9.711321
2022-11-07T10:20:42.721Z,9.711326
2022-11-07T10:21:42.712Z,9.711246
2022-11-07T10:22:42.715Z,9.711361
2022-11-07T10:23:42.687Z,9.711376
2022-11-07T10:24:42.685Z,9.711399
2022-11-07T10:25:42.675Z,9.711278
2022-11-07T10:26:42.677Z,9.711288
2022-11-07T10:27:42.663Z,9.711320
2022-11-07T10:28:42.658Z,9.711293
2022-11-07T10:29:44.740Z,9.711394
2022-11-07T10:30:43.633Z,9.711383
2022-11-07T10:31:42.633Z,9.711331
2022-11-07T10:32:42.623Z,9.711288
2022-11-07T10:33:42.620Z,9.711453
2022-11-07T10:34:42.629Z,9.711369
2022-11-07T10:35:42.595Z,9.711548
2022-11-07T10:36:42.599Z,9.711662
2022-11-07T10:37:42.587Z,9.712805
2022-11-07T10:38:42.572Z,9.713346
2022-11-07T10:39:42.580Z,9.713648
2022-11-07T10:40:44.195Z,9.713972
2022-11-07T10:41:42.558Z,9.714166
2022-11-07T10:42:42.539Z,9.714113
2022-11-07T10:43:44.225Z,9.713813
2022-11-07T10:44:43.422Z,9.713072
2022-11-07T10:45:42.521Z,9.713001
2022-11-07T10:46:42.503Z,9.712849
2022-11-07T10:47:42.496Z,9.712354
2022-11-07T10:48:42.506Z,9.711692
2022-11-07T10:49:42.508Z,9.711565
2022-11-07T10:50:42.475Z,9.711596
2022-11-07T10:51:43.286Z,9.711491
2022-11-07T10:52:42.461Z,9.711161
2022-11-07T10:53:42.470Z,9.711207
2022-11-07T10:54:42.454Z,9.711364
2022-11-07T10:55:42.434Z,9.711364
2022-11-07T10:56:42.434Z,9.711350
2022-11-07T10:57:42.420Z,9.711581
2022-11-07T10:58:42.453Z,9.711739
2022-11-07T10:59:42.414Z,9.711854
2022-11-07T11:00:42.499Z,9.711794
2022-11-07T11:01:42.475Z,9.711833
2022-11-07T11:02:42.387Z,9.711808
2022-11-07T11:03:44.866Z,9.711725
2022-11-07T11:04:48.016Z,9.711689
2022-11-07T11:05:44.373Z,9.711743
2022-11-07T11:06:42.375Z,9.711840
2022-11-07T11:07:44.309Z,9.711819
2022-11-07T11:08:42.379Z,9.711749
2022-11-07T11:09:44.219Z,9.711768
2022-11-07T11:10:42.348Z,9.711740
2022-11-07T11:11:42.329Z,9.711746
2022-11-07T11:12:42.990Z,9.711751
2022-11-07T11:13:47.308Z,9.711740
2022-11-07T11:14:52.822Z,9.711688
2022-11-07T11:15:42.814Z,9.711732
2022-11-07T11:16:42.432Z,9.711746
2022-11-07T11:17:42.269Z,9.711720
2022-11-07T11:18:42.287Z,9.711669
2022-11-07T11:19:42.259Z,9.711694
2022-11-07T11:20:42.246Z,9.711679
2022-11-07T11:21:42.248Z,9.711714
2022-11-07T11:22:43.220Z,9.711736
2022-11-07T11:23:42.235Z,9.711752
2022-11-07T11:24:42.232Z,9.711731
2022-11-07T11:25:44.745Z,9.711744
2022-11-07T11:26:42.719Z,9.711753
2022-11-07T11:27:42.194Z,9.711729
2022-11-07T11:28:42.183Z,9.711754
2022-11-07T11:29:42.801Z,9.711804
2022-11-07T11:30:42.159Z,9.711706
2022-11-07T11:31:42.148Z,9.711708
2022-11-07T11:32:43.796Z,9.711703
2022-11-07T11:33:42.154Z,9.711698
2022-11-07T11:34:42.139Z,9.711749
2022-11-07T11:35:42.528Z,9.711754
2022-11-07T11:36:43.102Z,9.711800
2022-11-07T11:37:42.099Z,9.711773
2022-11-07T11:38:43.220Z,9.711807
2022-11-07T11:39:42.078Z,9.711827
2022-11-07T11:40:42.092Z,9.711791
2022-11-07T11:41:42.061Z,9.711729
2022-11-07T11:42:42.063Z,9.711793
2022-11-07T11:43:42.055Z,9.711861
2022-11-07T11:44:42.054Z,9.711883
2022-11-07T11:45:43.824Z,9.711986
2022-11-07T11:46:43.731Z,9.711852
2022-11-07T11:47:43.824Z,9.711921
2022-11-07T11:48:42.024Z,9.711941
2022-11-07T11:49:44.826Z,9.711880
2022-11-07T11:50:43.003Z,9.711997
2022-11-07T11:51:41.992Z,9.712058
2022-11-07T11:52:41.987Z,9.711870
2022-11-07T11:53:41.979Z,9.711991
2022-11-07T11:54:41.965Z,9.711960
2022-11-07T11:55:41.964Z,9.712019
2022-11-07T11:56:41.953Z,9.711972
2022-11-07T11:57:41.939Z,9.712020
2022-11-07T11:58:41.938Z,9.711976
2022-11-07T11:59:41.947Z,9.712016
2022-11-07T12:00:41.919Z,9.711991
2022-11-07T12:01:41.907Z,9.711963
2022-11-07T12:02:41.957Z,9.711979
2022-11-07T12:03:41.913Z,9.712005
2022-11-07T12:04:42.036Z,9.711976
2022-11-07T12:05:41.876Z,9.711987
2022-11-07T12:06:41.871Z,9.711954
2022-11-07T12:07:41.859Z,9.711979
2022-11-07T12:08:41.880Z,9.712084
2022-11-07T12:09:41.868Z,9.712136
2022-11-07T12:10:43.726Z,9.712022
2022-11-07T12:11:41.862Z,9.712180
2022-11-07T12:12:41.828Z,9.712391
2022-11-07T12:13:42.809Z,9.712346
2022-11-07T12:14:41.812Z,9.711960
2022-11-07T12:15:41.805Z,9.711973
2022-11-07T12:16:41.791Z,9.711936
2022-11-07T12:17:41.802Z,9.711944
2022-11-07T12:18:41.782Z,9.711871
2022-11-07T12:19:41.832Z,9.711915
2022-11-07T12:20:41.782Z,9.711823
2022-11-07T12:21:47.336Z,9.711841
2022-11-07T12:22:43.740Z,9.711810
2022-11-07T12:23:41.736Z,9.711850
2022-11-07T12:24:41.757Z,9.711845